Nesenie raksti

Ziņas

Par Gliding.lv

Gliding.lv ir interneta vietne par planieriem un planierismu. Šeit būs atrodama informācija par iespējām pamēģināt, iesaistīties un organizēt planierisma aktivitātes. Izmanto Gliding.lv forumu, ja Tev ir kāda tēma diskusijai vai jautājums. Gliding.lv merķis ir informēt un apvienot planierisma interesentus, nodrošinot un apmainoties ar aktuālāko un arī bijušo. Lidojam!

Laiks Rīgā
20°
few clouds
mitrums: 68%
vējš: 3m/s DDA
Aug 19 • Zem 18
22°
Pie
23°
Ses
22°
Svē
18°
Pir
Meteo-dati no OpenWeatherMap

METAR

EVRA 241550Z 15006KT CAVOK 21/14 Q1006 NOSIG

EVLA 241550Z AUTO 19005KT 9999 SCT058/// 21/16 Q1004

EVVA 241550Z AUTO 21006KT CAVOK 19/15 Q1004

Nesenie raksti

Pāriet uz rīkjoslu